Clare, Michigan
Current Conditions -  °F | °C
As of 11:55 AM on Monday 22 Dec 2014 (Local Time) from KMOP Reporting Station
Clear Clear  
Wind Chill: 27°   Ceiling: Unl
Heat Index: 34°   Visibility: 7mi
Dew Point: 26°   Wind: 8mph
Humidity: 73%   Direction: 120°ESE
Pressure: 30.01"   Gusts: NA
Location:  43.82°N, 84.77°W
Report Text: KMOP 221655Z AUTO 12007KT 7SM CLR 01/M03 A3001 RMK AO2 T00101033
Loading
Personal Weather Stations






























Interactive Weather Map New forecast layout! Learn more

10-Day Weather Forecast

Advertisements
Track Severe Weather on mobile